createdAt,value
2023-03-24T00:01:07.612Z,92.54
2023-03-24T00:05:07.669Z,112.08
2023-03-24T00:09:07.792Z,90.44
2023-03-24T00:13:07.925Z,106.72
2023-03-24T00:17:08.067Z,120.07
2023-03-24T00:21:08.192Z,75.87
2023-03-24T00:25:08.320Z,70.25
2023-03-24T00:29:08.435Z,81.89
2023-03-24T00:33:08.594Z,72.27
2023-03-24T00:37:08.705Z,63.28
2023-03-24T00:41:08.854Z,85.61
2023-03-24T00:45:08.956Z,77.34
2023-03-24T00:49:09.138Z,79.63
2023-03-24T00:53:09.298Z,81.86
2023-03-24T00:57:09.433Z,75.34
2023-03-24T01:01:09.582Z,56.66
2023-03-24T01:05:09.664Z,79.00
2023-03-24T01:09:09.796Z,68.09
2023-03-24T01:13:10.012Z,70.92
2023-03-24T01:17:10.051Z,83.50
2023-03-24T01:21:10.156Z,74.72
2023-03-24T01:25:10.301Z,70.38
2023-03-24T01:29:10.437Z,72.11
2023-03-24T01:33:10.634Z,84.37
2023-03-24T01:37:10.799Z,78.91
2023-03-24T01:41:11.000Z,85.72
2023-03-24T01:45:11.062Z,90.63
2023-03-24T01:49:11.220Z,85.70
2023-03-24T01:53:11.368Z,80.15
2023-03-24T01:57:11.511Z,88.63
2023-03-24T02:01:11.587Z,78.27
2023-03-24T02:05:11.731Z,78.75
2023-03-24T02:09:11.795Z,99.44
2023-03-24T02:13:11.873Z,103.20
2023-03-24T02:17:12.000Z,88.74
2023-03-24T02:21:12.123Z,79.95
2023-03-24T02:25:12.261Z,91.77
2023-03-24T02:29:12.423Z,110.98
2023-03-24T02:33:12.525Z,115.33
2023-03-24T02:37:12.697Z,126.03
2023-03-24T02:41:12.850Z,127.81
2023-03-24T02:45:12.944Z,118.46
2023-03-24T02:49:13.138Z,118.20
2023-03-24T02:53:13.214Z,113.99
2023-03-24T02:57:13.321Z,109.25
2023-03-24T03:01:13.528Z,127.27
2023-03-24T03:05:13.570Z,151.74
2023-03-24T03:09:13.670Z,133.55
2023-03-24T03:13:13.805Z,136.76
2023-03-24T03:17:13.928Z,151.29
2023-03-24T03:21:14.082Z,146.30
2023-03-24T03:25:14.257Z,150.51
2023-03-24T03:29:14.401Z,141.72
2023-03-24T03:33:14.582Z,107.77
2023-03-24T03:37:14.692Z,98.78
2023-03-24T03:41:14.846Z,113.63
2023-03-24T03:45:14.929Z,102.67
2023-03-24T03:49:15.122Z,110.97
2023-03-24T03:53:15.254Z,121.72
2023-03-24T03:57:15.397Z,118.79
2023-03-24T04:01:15.564Z,117.50
2023-03-24T04:05:15.710Z,125.55
2023-03-24T04:09:15.866Z,134.33
2023-03-24T04:13:15.976Z,114.91
2023-03-24T04:17:16.075Z,117.79
2023-03-24T04:21:16.275Z,131.50
2023-03-24T04:25:16.347Z,133.95
2023-03-24T04:29:16.538Z,137.11
2023-03-24T04:33:16.673Z,140.54
2023-03-24T04:37:16.828Z,134.05
2023-03-24T04:41:16.947Z,139.41
2023-03-24T04:45:17.096Z,152.73
2023-03-24T04:49:17.143Z,140.36
2023-03-24T04:53:17.296Z,126.40
2023-03-24T04:57:17.408Z,169.63
2023-03-24T05:01:17.615Z,173.97
2023-03-24T05:05:17.702Z,167.92
2023-03-24T05:09:17.833Z,165.64
2023-03-24T05:13:17.959Z,163.78
2023-03-24T05:17:18.065Z,168.23
2023-03-24T05:21:18.209Z,162.23
2023-03-24T05:25:18.353Z,160.45
2023-03-24T05:29:18.475Z,168.69
2023-03-24T05:33:18.617Z,181.10
2023-03-24T05:37:18.732Z,152.96
2023-03-24T05:41:18.882Z,140.16
2023-03-24T05:45:19.084Z,131.74
2023-03-24T05:49:19.137Z,137.08
2023-03-24T05:53:19.237Z,158.54
2023-03-24T05:57:19.400Z,188.81
2023-03-24T06:01:19.566Z,168.14
2023-03-24T06:05:19.637Z,177.17
2023-03-24T06:09:19.785Z,185.15
2023-03-24T06:13:19.964Z,172.85
2023-03-24T06:17:20.041Z,163.41
2023-03-24T06:21:20.173Z,162.24
2023-03-24T06:25:20.536Z,161.96
2023-03-24T06:29:21.026Z,221.59
2023-03-24T06:33:20.660Z,250.00
2023-03-24T06:37:20.982Z,250.00
2023-03-24T06:41:20.959Z,246.95
2023-03-24T06:45:21.548Z,250.36
2023-03-24T06:49:21.213Z,250.00
2023-03-24T06:53:21.272Z,250.00
2023-03-24T06:57:21.400Z,249.37
2023-03-24T07:01:21.470Z,246.13
2023-03-24T07:05:22.057Z,216.49
2023-03-24T07:09:21.574Z,230.27
2023-03-24T07:13:21.732Z,215.16
2023-03-24T07:17:23.254Z,213.10
2023-03-24T07:21:22.068Z,214.92
2023-03-24T07:25:22.034Z,223.74
2023-03-24T07:29:22.218Z,225.99
2023-03-24T07:33:22.547Z,219.48
2023-03-24T07:37:22.520Z,217.20
2023-03-24T07:41:22.569Z,192.31
2023-03-24T07:45:22.689Z,179.48
2023-03-24T07:49:22.865Z,164.71
2023-03-24T07:53:23.042Z,167.75
2023-03-24T07:57:23.063Z,164.39
2023-03-24T08:01:23.114Z,156.54
2023-03-24T08:05:23.524Z,152.15
2023-03-24T08:09:23.279Z,153.81
2023-03-24T08:13:23.546Z,149.47
2023-03-24T08:17:23.507Z,136.91
2023-03-24T08:21:23.616Z,166.82
2023-03-24T08:25:24.115Z,169.58
2023-03-24T08:29:24.041Z,187.84
2023-03-24T08:33:24.034Z,199.54
2023-03-24T08:37:24.546Z,203.32
2023-03-24T08:41:24.300Z,206.02
2023-03-24T08:45:24.413Z,210.46
2023-03-24T08:49:24.502Z,212.12
2023-03-24T08:53:24.563Z,216.70
2023-03-24T08:57:25.077Z,219.71
2023-03-24T09:01:24.781Z,238.08
2023-03-24T09:05:40.776Z,242.22
2023-03-24T09:09:26.071Z,242.51
2023-03-24T09:13:25.054Z,237.43
2023-03-24T09:17:25.092Z,221.73
2023-03-24T09:21:24.929Z,224.35
2023-03-24T09:25:25.071Z,223.33
2023-03-24T09:29:25.145Z,206.09
2023-03-24T09:33:25.313Z,186.79
2023-03-24T09:37:25.409Z,179.50
2023-03-24T09:41:25.564Z,134.76
2023-03-24T09:45:26.123Z,62.01
2023-03-24T09:49:26.104Z,43.87
2023-03-24T09:53:26.074Z,85.30
2023-03-24T09:57:26.157Z,96.35
2023-03-24T10:01:26.347Z,113.58
2023-03-24T10:05:26.576Z,116.99
2023-03-24T10:09:26.569Z,111.73
2023-03-24T10:13:26.670Z,69.40
2023-03-24T10:17:26.766Z,43.75
2023-03-24T10:21:26.864Z,53.79
2023-03-24T10:25:26.996Z,44.46
2023-03-24T10:29:27.603Z,86.62
2023-03-24T10:33:27.615Z,113.02
2023-03-24T10:37:27.351Z,128.51
2023-03-24T10:41:27.536Z,129.48
2023-03-24T10:45:28.117Z,121.08
2023-03-24T10:49:28.993Z,115.34
2023-03-24T10:53:27.896Z,111.93
2023-03-24T10:57:27.923Z,104.03
2023-03-24T11:01:28.192Z,121.69
2023-03-24T11:05:28.604Z,137.84
2023-03-24T11:09:28.632Z,126.01
2023-03-24T11:13:28.349Z,135.36
2023-03-24T11:17:28.561Z,118.66
2023-03-24T11:21:29.108Z,144.80
2023-03-24T11:25:30.617Z,152.42
2023-03-24T11:29:29.147Z,51.45
2023-03-24T11:33:34.415Z,68.86
2023-03-24T11:37:30.138Z,91.27
2023-03-24T11:41:28.680Z,115.37
2023-03-24T11:45:28.664Z,124.06
2023-03-24T11:49:28.723Z,147.96
2023-03-24T11:53:28.858Z,170.82
2023-03-24T11:57:28.908Z,162.29
2023-03-24T12:01:29.090Z,165.03
2023-03-24T12:05:29.292Z,159.58
2023-03-24T12:09:29.220Z,152.40
2023-03-24T12:13:33.061Z,141.88
2023-03-24T12:17:29.308Z,141.71
2023-03-24T12:21:29.633Z,158.30
2023-03-24T12:25:29.211Z,163.64
2023-03-24T12:29:29.156Z,178.24
2023-03-24T12:33:29.114Z,180.96
2023-03-24T12:37:29.070Z,188.70
2023-03-24T12:41:29.015Z,190.83
2023-03-24T12:45:29.004Z,187.61
2023-03-24T12:49:28.939Z,186.75
2023-03-24T12:53:28.964Z,185.68
2023-03-24T12:57:29.098Z,183.16
2023-03-24T13:01:29.247Z,170.40
2023-03-24T13:05:29.218Z,169.44
2023-03-24T13:09:29.355Z,164.19
2023-03-24T13:13:29.457Z,161.82
2023-03-24T13:17:29.541Z,154.78
2023-03-24T13:21:29.614Z,147.40
2023-03-24T13:25:29.752Z,145.65
2023-03-24T13:29:38.396Z,143.94
2023-03-24T13:33:30.789Z,140.53
2023-03-24T13:37:29.756Z,134.97
2023-03-24T13:41:29.770Z,126.71
2023-03-24T13:45:29.945Z,122.16
2023-03-24T13:49:30.118Z,121.22
2023-03-24T13:53:30.308Z,120.96
2023-03-24T13:57:30.512Z,116.49
2023-03-24T14:01:30.645Z,109.86
2023-03-24T14:05:30.686Z,104.37
2023-03-24T14:09:30.984Z,103.37
2023-03-24T14:13:31.040Z,101.96
2023-03-24T14:17:31.144Z,99.52
2023-03-24T14:21:31.259Z,89.55
2023-03-24T14:25:31.430Z,82.93
2023-03-24T14:29:31.537Z,84.75
2023-03-24T14:33:31.718Z,82.92
2023-03-24T14:37:31.850Z,73.45
2023-03-24T14:41:32.014Z,71.78
2023-03-24T14:45:33.367Z,76.82
2023-03-24T14:49:32.272Z,76.20
2023-03-24T14:53:32.409Z,70.74
2023-03-24T14:57:32.536Z,68.75
2023-03-24T15:01:32.804Z,72.78
2023-03-24T15:05:32.984Z,66.36
2023-03-24T15:09:33.100Z,57.33
2023-03-24T15:13:33.150Z,61.51
2023-03-24T15:17:33.239Z,60.21
2023-03-24T15:21:33.263Z,48.09
2023-03-24T15:25:33.348Z,59.16
2023-03-24T15:29:33.513Z,55.01
2023-03-24T15:33:33.458Z,53.24
2023-03-24T15:37:33.443Z,45.41
2023-03-24T15:41:33.394Z,41.43
2023-03-24T15:45:33.420Z,41.22
2023-03-24T15:49:33.321Z,53.23
2023-03-24T15:53:33.326Z,45.50
2023-03-24T15:57:33.241Z,48.34
2023-03-24T16:01:33.196Z,57.81
2023-03-24T16:05:33.158Z,31.37
2023-03-24T16:09:33.140Z,32.19
2023-03-24T16:13:33.080Z,41.88
2023-03-24T16:17:33.277Z,88.40
2023-03-24T16:21:33.049Z,73.87
2023-03-24T16:25:33.016Z,42.10
2023-03-24T16:29:32.994Z,49.39
2023-03-24T16:33:33.030Z,47.68
2023-03-24T16:37:32.868Z,62.70
2023-03-24T16:41:33.248Z,63.19
2023-03-24T16:45:32.930Z,58.42
2023-03-24T16:49:33.097Z,65.52
2023-03-24T16:53:33.134Z,73.14
2023-03-24T16:57:33.261Z,70.39
2023-03-24T17:01:33.747Z,68.28
2023-03-24T17:05:33.490Z,58.66
2023-03-24T17:09:33.603Z,56.91
2023-03-24T17:13:33.779Z,51.29
2023-03-24T17:17:33.863Z,49.93
2023-03-24T17:21:33.950Z,45.77
2023-03-24T17:25:34.021Z,41.64
2023-03-24T17:29:34.136Z,37.10
2023-03-24T17:33:34.239Z,51.05
2023-03-24T17:37:34.340Z,41.66
2023-03-24T17:41:34.451Z,41.49
2023-03-24T17:45:34.559Z,49.55
2023-03-24T17:49:34.697Z,32.30
2023-03-24T17:53:34.823Z,36.69
2023-03-24T17:57:34.924Z,25.88
2023-03-24T18:01:35.318Z,30.05
2023-03-24T18:05:35.169Z,29.24
2023-03-24T18:09:35.290Z,30.65
2023-03-24T18:13:35.459Z,39.44
2023-03-24T18:17:35.619Z,34.28
2023-03-24T18:21:35.777Z,34.81
2023-03-24T18:25:35.914Z,31.21
2023-03-24T18:29:35.989Z,33.45
2023-03-24T18:33:36.164Z,37.15
2023-03-24T18:37:36.326Z,46.93
2023-03-24T18:41:36.502Z,34.91
2023-03-24T18:45:36.682Z,31.45
2023-03-24T18:49:36.780Z,42.08
2023-03-24T18:53:36.947Z,61.15
2023-03-24T18:57:37.146Z,33.73
2023-03-24T19:01:37.324Z,34.98
2023-03-24T19:05:37.420Z,60.11
2023-03-24T19:09:37.608Z,45.09
2023-03-24T19:13:37.748Z,44.89
2023-03-24T19:17:37.958Z,40.92
2023-03-24T19:21:38.057Z,41.53
2023-03-24T19:25:38.164Z,41.57
2023-03-24T19:29:38.337Z,25.00
2023-03-24T19:33:38.421Z,34.26
2023-03-24T19:37:38.512Z,30.53
2023-03-24T19:41:38.627Z,37.25
2023-03-24T19:45:38.681Z,43.13
2023-03-24T19:49:38.785Z,40.99
2023-03-24T19:53:38.986Z,49.58
2023-03-24T19:57:39.068Z,32.15
2023-03-24T20:01:39.191Z,44.22
2023-03-24T20:05:39.316Z,56.33
2023-03-24T20:09:39.429Z,64.88
2023-03-24T20:13:39.647Z,57.73
2023-03-24T20:17:39.894Z,51.95
2023-03-24T20:21:39.846Z,50.57
2023-03-24T20:25:39.894Z,57.52
2023-03-24T20:29:40.093Z,47.96
2023-03-24T20:33:40.264Z,37.23
2023-03-24T20:37:40.268Z,25.41
2023-03-24T20:41:40.332Z,31.87
2023-03-24T20:45:40.521Z,31.80
2023-03-24T20:49:40.647Z,30.29
2023-03-24T20:53:40.858Z,40.44
2023-03-24T20:57:41.029Z,45.25
2023-03-24T21:01:41.307Z,41.18
2023-03-24T21:05:41.298Z,42.22
2023-03-24T21:09:41.513Z,41.50
2023-03-24T21:13:41.645Z,45.99
2023-03-24T21:17:41.877Z,45.94
2023-03-24T21:21:42.030Z,49.69
2023-03-24T21:25:42.147Z,47.34
2023-03-24T21:29:42.190Z,37.40
2023-03-24T21:33:42.256Z,37.13
2023-03-24T21:37:42.396Z,32.29
2023-03-24T21:41:42.456Z,32.72
2023-03-24T21:45:42.497Z,34.16
2023-03-24T21:49:42.620Z,35.12
2023-03-24T21:53:42.870Z,34.22
2023-03-24T21:57:43.016Z,28.74
2023-03-24T22:01:43.210Z,29.02
2023-03-24T22:05:43.347Z,37.31
2023-03-24T22:09:43.495Z,39.40
2023-03-24T22:13:43.553Z,41.88
2023-03-24T22:17:43.740Z,40.80
2023-03-24T22:21:43.734Z,46.64
2023-03-24T22:25:43.850Z,53.22
2023-03-24T22:29:43.945Z,43.32
2023-03-24T22:33:44.045Z,43.39
2023-03-24T22:37:44.216Z,44.64
2023-03-24T22:41:44.337Z,47.67
2023-03-24T22:45:44.549Z,38.87
2023-03-24T22:49:44.641Z,37.04
2023-03-24T22:53:44.745Z,32.41
2023-03-24T22:57:44.852Z,37.35
2023-03-24T23:01:47.881Z,28.19
2023-03-24T23:05:46.217Z,29.55
2023-03-24T23:09:45.411Z,34.92
2023-03-24T23:13:44.913Z,34.72
2023-03-24T23:17:45.156Z,31.47
2023-03-24T23:21:45.340Z,26.97
2023-03-24T23:25:45.536Z,29.82
2023-03-24T23:29:45.582Z,34.48
2023-03-24T23:33:45.708Z,39.10
2023-03-24T23:37:45.846Z,41.32
2023-03-24T23:41:45.911Z,61.65
2023-03-24T23:45:46.115Z,64.52
2023-03-24T23:49:46.232Z,52.65
2023-03-24T23:53:46.390Z,57.02
2023-03-24T23:57:46.680Z,72.79
